Time;durP1;ratioP1;P1;durP2;ratioP2;P2;SDS_P1;SDS_P2;PMS_P1;PMS_P2;Temp;Humidity;BMP_temperature;BMP_pressure;BME280_temperature;BME280_humidity;BME280_pressure;Samples;Min_cycle;Max_cycle;Signal;HPM_P1;HPM_P2
2021/05/08 00:01:40;;;;;;;;;;;23.00;32.70;;;;;;1577614;74;759;-66
2021/05/08 00:03:42;;;;;;;;;;;22.90;32.70;;;;;;1575543;74;848;-66
2021/05/08 00:05:43;;;;;;;;;;;22.90;32.70;;;;;;1578640;74;736;-66
2021/05/08 00:07:45;;;;;;;;;;;22.90;32.70;;;;;;1573399;74;1171;-67
2021/05/08 00:09:47;;;;;;;;;;;22.90;32.70;;;;;;1575150;74;774;-69
2021/05/08 00:11:49;;;;;;;;;;;23.00;32.70;;;;;;1568398;75;800;-65
2021/05/08 00:13:51;;;;;;;;;;;23.00;32.70;;;;;;1576786;74;727;-66
2021/05/08 00:15:53;;;;;;;;;;;23.00;32.80;;;;;;1567443;74;1939;-66
2021/05/08 00:17:55;;;;;;;;;;;22.90;32.70;;;;;;1574356;74;1151;-67
2021/05/08 00:19:56;;;;;;;;;;;22.90;32.70;;;;;;1572566;74;671;-66
2021/05/08 00:21:58;;;;;;;;;;;22.90;32.70;;;;;;1575938;74;806;-66
2021/05/08 00:24:00;;;;;;;;;;;22.90;32.70;;;;;;1563966;74;768;-68
2021/05/08 00:26:03;;;;;;;;;;;22.90;32.70;;;;;;1575185;74;751;-68
2021/05/08 00:28:05;;;;;;;;;;;22.90;32.70;;;;;;1569744;74;1159;-66
2021/05/08 00:30:07;;;;;;;;;;;22.90;32.70;;;;;;1574580;74;739;-67
2021/05/08 00:32:09;;;;;;;;;;;22.90;32.80;;;;;;1572835;74;733;-65
2021/05/08 00:34:11;;;;;;;;;;;22.90;32.70;;;;;;1577099;74;785;-70
2021/05/08 00:36:13;;;;;;;;;;;22.90;32.80;;;;;;1561035;74;1939;-66
2021/05/08 00:38:14;;;;;;;;;;;22.80;32.60;;;;;;1576891;74;1120;-66
2021/05/08 00:40:16;;;;;;;;;;;22.90;32.70;;;;;;1566748;74;857;-66
2021/05/08 00:42:18;;;;;;;;;;;22.80;32.60;;;;;;1575796;74;791;-67
2021/05/08 00:44:20;;;;;;;;;;;22.90;32.60;;;;;;1569505;74;843;-66
2021/05/08 00:46:22;;;;;;;;;;;22.80;32.60;;;;;;1568711;74;710;-66
2021/05/08 00:48:24;;;;;;;;;;;22.80;32.70;;;;;;1572277;74;1127;-67
2021/05/08 00:50:26;;;;;;;;;;;22.80;32.70;;;;;;1566536;74;837;-68
2021/05/08 00:52:28;;;;;;;;;;;22.80;32.60;;;;;;1572287;74;658;-68
2021/05/08 00:54:30;;;;;;;;;;;22.80;32.60;;;;;;1575866;74;802;-68
2021/05/08 00:56:32;;;;;;;;;;;22.80;32.60;;;;;;1572033;74;1937;-67
2021/05/08 00:58:34;;;;;;;;;;;22.80;32.60;;;;;;1567041;74;1126;-65
2021/05/08 01:00:36;;;;;;;;;;;22.90;32.70;;;;;;1565937;74;790;-68
2021/05/08 01:02:38;;;;;;;;;;;22.80;32.60;;;;;;1567804;74;713;-66
2021/05/08 01:04:40;;;;;;;;;;;22.80;32.60;;;;;;1573043;74;726;-66
2021/05/08 01:06:42;;;;;;;;;;;22.80;32.60;;;;;;1577281;74;717;-66
2021/05/08 01:08:43;;;;;;;;;;;22.90;32.70;;;;;;1565787;74;1135;-67
2021/05/08 01:10:45;;;;;;;;;;;22.80;32.50;;;;;;1581454;74;776;-67
2021/05/08 01:12:47;;;;;;;;;;;22.80;32.50;;;;;;1568363;74;720;-67
2021/05/08 01:14:49;;;;;;;;;;;22.80;32.40;;;;;;1571372;74;788;-68
2021/05/08 01:16:51;;;;;;;;;;;22.90;32.40;;;;;;1570193;74;1928;-66
2021/05/08 01:18:54;;;;;;;;;;;22.80;32.30;;;;;;1567740;74;1154;-66
2021/05/08 01:20:56;;;;;;;;;;;22.90;32.40;;;;;;1570672;74;982;-66
2021/05/08 01:22:58;;;;;;;;;;;22.80;32.20;;;;;;1564499;74;718;-66
2021/05/08 01:25:00;;;;;;;;;;;22.70;32.30;;;;;;1569052;74;700;-66
2021/05/08 01:27:02;;;;;;;;;;;22.70;32.40;;;;;;1572884;74;864;-67
2021/05/08 01:29:04;;;;;;;;;;;22.80;32.30;;;;;;1569729;74;1109;-67
2021/05/08 01:31:07;;;;;;;;;;;22.80;32.20;;;;;;1568071;74;804;-67
2021/05/08 01:33:09;;;;;;;;;;;22.80;32.20;;;;;;1576629;74;783;-65
2021/05/08 01:35:11;;;;;;;;;;;22.70;32.30;;;;;;1564403;74;1937;-67
2021/05/08 01:37:12;;;;;;;;;;;22.70;32.30;;;;;;1570839;74;764;-68
2021/05/08 01:39:14;;;;;;;;;;;22.80;32.30;;;;;;1573927;74;1112;-68
2021/05/08 01:41:16;;;;;;;;;;;22.80;32.30;;;;;;1577702;74;790;-68
2021/05/08 01:43:18;;;;;;;;;;;22.70;32.10;;;;;;1565034;74;724;-66
2021/05/08 01:45:20;;;;;;;;;;;22.80;32.10;;;;;;1570073;75;731;-66
2021/05/08 01:47:22;;;;;;;;;;;22.90;32.10;;;;;;1561723;74;729;-65
2021/05/08 01:49:24;;;;;;;;;;;22.80;32.00;;;;;;1572784;74;762;-65
2021/05/08 01:51:26;;;;;;;;;;;22.90;32.10;;;;;;1571765;74;736;-65
2021/05/08 01:53:28;;;;;;;;;;;22.80;32.00;;;;;;1568614;74;747;-65
2021/05/08 01:55:30;;;;;;;;;;;22.80;32.00;;;;;;1570729;74;1930;-67
2021/05/08 01:57:32;;;;;;;;;;;22.80;32.10;;;;;;1571603;74;1136;-68
2021/05/08 01:59:33;;;;;;;;;;;22.80;32.20;;;;;;1566096;72;219706;-71
2021/05/08 02:01:35;;;;;;;;;;;22.80;32.30;;;;;;1572018;74;740;-73
2021/05/08 02:03:37;;;;;;;;;;;22.80;32.10;;;;;;1573362;74;614;-71
2021/05/08 02:05:39;;;;;;;;;;;22.80;32.10;;;;;;1547390;75;734;-70
2021/05/08 02:07:41;;;;;;;;;;;22.80;32.00;;;;;;1571617;74;915;-70
2021/05/08 02:09:43;;;;;;;;;;;22.90;32.10;;;;;;1543350;75;1182;-71
2021/05/08 02:11:45;;;;;;;;;;;22.90;32.00;;;;;;1576421;74;818;-69
2021/05/08 02:13:47;;;;;;;;;;;22.90;32.00;;;;;;1570109;74;755;-73
2021/05/08 02:15:49;;;;;;;;;;;22.90;32.00;;;;;;1573329;74;1983;-72
2021/05/08 02:17:51;;;;;;;;;;;22.90;31.90;;;;;;1548459;75;755;-70
2021/05/08 02:19:52;;;;;;;;;;;22.90;31.90;;;;;;1575234;74;1100;-73
2021/05/08 02:21:55;;;;;;;;;;;22.90;31.80;;;;;;1574410;74;856;-72
2021/05/08 02:23:57;;;;;;;;;;;22.80;31.70;;;;;;1569111;74;785;-72
2021/05/08 02:25:59;;;;;;;;;;;22.80;31.70;;;;;;1573387;74;839;-70
2021/05/08 02:28:01;;;;;;;;;;;22.80;31.70;;;;;;1576696;74;1140;-71
2021/05/08 02:30:04;;;;;;;;;;;22.80;31.80;;;;;;1572606;74;763;-74
2021/05/08 02:32:06;;;;;;;;;;;22.80;31.90;;;;;;1573868;74;824;-71
2021/05/08 02:34:08;;;;;;;;;;;22.70;32.00;;;;;;1561168;74;728;-71
2021/05/08 02:36:10;;;;;;;;;;;22.70;32.10;;;;;;1545302;75;1940;-72
2021/05/08 02:38:12;;;;;;;;;;;22.70;32.20;;;;;;1549355;75;1159;-72
2021/05/08 02:40:15;;;;;;;;;;;22.60;32.10;;;;;;1564414;74;724;-71
2021/05/08 02:42:17;;;;;;;;;;;22.60;32.10;;;;;;1573273;74;754;-71
2021/05/08 02:44:19;;;;;;;;;;;22.60;32.10;;;;;;1572891;74;891;-71
2021/05/08 02:46:20;;;;;;;;;;;22.60;32.20;;;;;;1567989;74;1373;-71
2021/05/08 02:48:22;;;;;;;;;;;22.50;32.20;;;;;;1542604;75;1181;-72
2021/05/08 02:50:24;;;;;;;;;;;22.50;32.20;;;;;;1543370;76;729;-70
2021/05/08 02:52:26;;;;;;;;;;;22.60;32.30;;;;;;1560862;74;786;-70
2021/05/08 02:54:28;;;;;;;;;;;22.50;32.40;;;;;;1567426;74;795;-70
2021/05/08 02:56:30;;;;;;;;;;;22.50;32.60;;;;;;1563360;74;1953;-70
2021/05/08 02:58:32;;;;;;;;;;;22.40;32.50;;;;;;1573120;74;1096;-69
2021/05/08 03:00:34;;;;;;;;;;;22.40;32.70;;;;;;1568169;74;780;-73
2021/05/08 03:02:35;;;;;;;;;;;22.40;32.80;;;;;;1569997;74;688;-73
2021/05/08 03:04:37;;;;;;;;;;;22.40;33.10;;;;;;1568809;74;746;-73
2021/05/08 03:06:39;;;;;;;;;;;22.30;33.20;;;;;;1553619;75;761;-72
2021/05/08 03:08:41;;;;;;;;;;;22.30;33.40;;;;;;1546248;75;1128;-72
2021/05/08 03:10:43;;;;;;;;;;;22.30;33.50;;;;;;1545554;75;803;-72
2021/05/08 03:12:45;;;;;;;;;;;22.20;33.40;;;;;;1550634;75;649;-72
2021/05/08 03:14:47;;;;;;;;;;;22.20;33.50;;;;;;1546958;75;765;-71
2021/05/08 03:16:48;;;;;;;;;;;22.20;33.60;;;;;;1575969;74;1932;-70
2021/05/08 03:18:50;;;;;;;;;;;22.20;33.70;;;;;;1574196;74;1141;-70
2021/05/08 03:20:52;;;;;;;;;;;22.20;33.70;;;;;;1576206;74;829;-70
2021/05/08 03:22:54;;;;;;;;;;;22.10;33.60;;;;;;1568118;74;832;-70
2021/05/08 03:24:56;;;;;;;;;;;22.20;33.60;;;;;;1571903;74;718;-71
2021/05/08 03:26:58;;;;;;;;;;;22.10;33.60;;;;;;1549336;76;801;-71
2021/05/08 03:29:00;;;;;;;;;;;22.10;33.40;;;;;;1539729;76;1119;-71
2021/05/08 03:31:01;;;;;;;;;;;22.10;33.40;;;;;;1540091;75;737;-73
2021/05/08 03:33:03;;;;;;;;;;;22.10;33.40;;;;;;1546992;76;649;-72
2021/05/08 03:35:05;;;;;;;;;;;22.10;33.70;;;;;;1549927;75;715;-73
2021/05/08 03:37:07;;;;;;;;;;;22.20;33.80;;;;;;1553393;75;1924;-72
2021/05/08 03:39:09;;;;;;;;;;;22.10;33.80;;;;;;1574496;74;1141;-72
2021/05/08 03:41:11;;;;;;;;;;;22.10;33.80;;;;;;1578720;74;933;-72
2021/05/08 03:43:13;;;;;;;;;;;22.10;33.80;;;;;;1577160;74;722;-72
2021/05/08 03:45:15;;;;;;;;;;;22.00;33.70;;;;;;1572715;74;788;-72
2021/05/08 03:47:17;;;;;;;;;;;22.20;33.90;;;;;;1579767;74;711;-71
2021/05/08 03:49:19;;;;;;;;;;;22.20;33.80;;;;;;1572303;74;1171;-71
2021/05/08 03:51:22;;;;;;;;;;;22.20;33.90;;;;;;1574677;74;747;-71
2021/05/08 03:53:24;;;;;;;;;;;22.10;33.80;;;;;;1583643;74;1244;-71
2021/05/08 03:55:26;;;;;;;;;;;22.10;33.70;;;;;;1569933;74;776;-71
2021/05/08 03:57:28;;;;;;;;;;;22.10;33.70;;;;;;1560683;74;1932;-71
2021/05/08 03:59:30;;;;;;;;;;;22.10;33.70;;;;;;1580463;73;1130;-72
2021/05/08 04:01:31;;;;;;;;;;;22.10;33.80;;;;;;1576814;74;776;-72
2021/05/08 04:03:33;;;;;;;;;;;22.10;33.90;;;;;;1579901;74;875;-72
2021/05/08 04:05:35;;;;;;;;;;;22.20;33.80;;;;;;1576653;74;760;-71
2021/05/08 04:07:37;;;;;;;;;;;22.20;33.80;;;;;;1571481;74;806;-70
2021/05/08 04:09:39;;;;;;;;;;;22.10;33.80;;;;;;1579013;74;1115;-72
2021/05/08 04:11:41;;;;;;;;;;;22.20;33.80;;;;;;1581333;74;806;-71
2021/05/08 04:13:43;;;;;;;;;;;22.10;33.90;;;;;;1577882;74;724;-71
2021/05/08 04:15:44;;;;;;;;;;;22.20;34.00;;;;;;1576584;74;759;-72
2021/05/08 04:17:46;;;;;;;;;;;22.10;33.80;;;;;;1580105;74;1929;-71
2021/05/08 04:19:48;;;;;;;;;;;22.10;33.90;;;;;;1579018;74;1111;-70
2021/05/08 04:21:50;;;;;;;;;;;22.20;33.90;;;;;;1579272;74;787;-70
2021/05/08 04:23:52;;;;;;;;;;;22.10;33.90;;;;;;1583498;74;998;-70
2021/05/08 04:25:54;;;;;;;;;;;22.10;33.90;;;;;;1583890;74;706;-70
2021/05/08 04:27:56;;;;;;;;;;;22.10;33.80;;;;;;1577831;74;758;-70
2021/05/08 04:29:58;;;;;;;;;;;22.10;33.70;;;;;;1580268;74;1232;-71
2021/05/08 04:31:59;;;;;;;;;;;22.10;33.70;;;;;;1584694;74;854;-72
2021/05/08 04:34:02;;;;;;;;;;;22.20;33.90;;;;;;1571032;74;705;-72
2021/05/08 04:36:04;;;;;;;;;;;22.20;33.90;;;;;;1575615;74;759;-72
2021/05/08 04:38:06;;;;;;;;;;;22.20;33.90;;;;;;1588439;73;1993;-71
2021/05/08 04:40:08;;;;;;;;;;;22.20;33.90;;;;;;1571540;74;744;-71
2021/05/08 04:42:09;;;;;;;;;;;22.10;34.10;;;;;;1582463;74;767;-71
2021/05/08 04:44:11;;;;;;;;;;;22.10;33.90;;;;;;1585368;74;748;-69
2021/05/08 04:46:13;;;;;;;;;;;22.10;34.00;;;;;;1576207;74;745;-71
2021/05/08 04:48:26;;;;;;;;;;;22.10;34.10;;;;;;1582059;74;1120;-69
2021/05/08 04:50:28;;;;;;;;;;;22.10;34.20;;;;;;1579953;74;785;-72
2021/05/08 04:52:30;;;;;;;;;;;22.10;34.00;;;;;;1582001;74;805;-72
2021/05/08 04:54:32;;;;;;;;;;;22.10;34.10;;;;;;1576820;74;760;-72
2021/05/08 04:56:34;;;;;;;;;;;22.10;34.20;;;;;;1585239;74;1916;-72
2021/05/08 04:58:35;;;;;;;;;;;22.20;34.20;;;;;;1574206;74;1135;-72
2021/05/08 05:00:37;;;;;;;;;;;22.10;34.20;;;;;;1586075;74;789;-73
2021/05/08 05:02:42;;;;;;;;;;;22.20;34.20;;;;;;1572009;74;695;-72
2021/05/08 05:04:44;;;;;;;;;;;22.10;34.20;;;;;;1578097;74;733;-71
2021/05/08 05:06:46;;;;;;;;;;;22.10;34.40;;;;;;1577582;74;804;-71
2021/05/08 05:08:48;;;;;;;;;;;22.20;34.30;;;;;;1577437;74;1104;-71
2021/05/08 05:10:54;;;;;;;;;;;22.10;34.30;;;;;;1582887;74;717;-71
2021/05/08 05:12:59;;;;;;;;;;;22.10;34.30;;;;;;1568248;74;738;-70
2021/05/08 05:15:00;;;;;;;;;;;22.10;34.40;;;;;;1578596;74;952;-71
2021/05/08 05:17:02;;;;;;;;;;;22.10;34.40;;;;;;1575471;74;1927;-70
2021/05/08 05:19:04;;;;;;;;;;;22.10;34.40;;;;;;1576913;73;1123;-71
2021/05/08 05:21:06;;;;;;;;;;;22.10;34.40;;;;;;1569292;74;937;-72
2021/05/08 05:23:08;;;;;;;;;;;22.10;34.50;;;;;;1580723;74;733;-71
2021/05/08 05:25:10;;;;;;;;;;;22.10;34.40;;;;;;1584707;74;731;-72
2021/05/08 05:27:12;;;;;;;;;;;22.10;34.30;;;;;;1579828;74;712;-73
2021/05/08 05:29:14;;;;;;;;;;;22.10;34.20;;;;;;1575144;74;1118;-73
2021/05/08 05:31:17;;;;;;;;;;;22.10;34.30;;;;;;1575015;74;803;-70
2021/05/08 05:33:19;;;;;;;;;;;22.20;34.30;;;;;;1575114;74;739;-72
2021/05/08 05:35:21;;;;;;;;;;;22.10;34.50;;;;;;1574721;74;769;-72
2021/05/08 05:37:23;;;;;;;;;;;22.20;34.50;;;;;;1575515;74;1949;-72
2021/05/08 05:39:25;;;;;;;;;;;22.20;34.40;;;;;;1576724;74;1127;-74
2021/05/08 05:41:26;;;;;;;;;;;22.10;34.40;;;;;;1570689;74;606;-73
2021/05/08 05:43:28;;;;;;;;;;;22.20;34.20;;;;;;1574218;74;722;-73
2021/05/08 05:45:30;;;;;;;;;;;22.20;34.30;;;;;;1573993;74;776;-72
2021/05/08 05:47:32;;;;;;;;;;;22.20;34.40;;;;;;1571028;74;872;-74
2021/05/08 05:49:34;;;;;;;;;;;22.10;34.20;;;;;;1581447;73;1171;-73
2021/05/08 05:51:36;;;;;;;;;;;22.30;34.50;;;;;;1574763;74;724;-72
2021/05/08 05:53:38;;;;;;;;;;;22.20;34.50;;;;;;1578452;74;741;-72
2021/05/08 05:55:40;;;;;;;;;;;22.30;34.60;;;;;;1582977;74;736;-72
2021/05/08 05:57:42;;;;;;;;;;;22.20;34.30;;;;;;1574980;74;1913;-72
2021/05/08 05:59:44;;;;;;;;;;;22.10;34.60;;;;;;1572192;74;1146;-73
2021/05/08 06:01:46;;;;;;;;;;;22.20;34.60;;;;;;1577750;74;901;-73
2021/05/08 06:03:48;;;;;;;;;;;22.20;34.60;;;;;;1573231;74;658;-71
2021/05/08 06:05:49;;;;;;;;;;;22.20;34.60;;;;;;1579317;74;749;-69
2021/05/08 06:07:51;;;;;;;;;;;22.20;34.40;;;;;;1574768;74;732;-69
2021/05/08 06:09:53;;;;;;;;;;;22.30;34.70;;;;;;1576336;74;1084;-69
2021/05/08 06:11:55;;;;;;;;;;;22.30;34.60;;;;;;1588536;74;717;-70
2021/05/08 06:13:57;;;;;;;;;;;22.30;34.50;;;;;;1581006;74;648;-70
2021/05/08 06:16:00;;;;;;;;;;;22.30;34.40;;;;;;1580776;74;724;-69
2021/05/08 06:18:02;;;;;;;;;;;22.30;34.40;;;;;;1564397;74;1912;-69
2021/05/08 06:20:04;;;;;;;;;;;22.30;34.40;;;;;;1574722;74;785;-69
2021/05/08 06:22:06;;;;;;;;;;;22.30;34.30;;;;;;1584376;74;596;-69
2021/05/08 06:24:08;;;;;;;;;;;22.30;34.20;;;;;;1580343;74;759;-69
2021/05/08 06:26:09;;;;;;;;;;;22.30;34.40;;;;;;1576553;74;754;-70
2021/05/08 06:28:12;;;;;;;;;;;22.30;34.50;;;;;;1573921;74;1151;-69
2021/05/08 06:30:14;;;;;;;;;;;22.30;34.50;;;;;;1577389;74;822;-70
2021/05/08 06:32:16;;;;;;;;;;;22.40;34.50;;;;;;1579088;74;725;-69
2021/05/08 06:34:17;;;;;;;;;;;22.40;34.40;;;;;;1576279;74;745;-70
2021/05/08 06:36:19;;;;;;;;;;;22.40;34.40;;;;;;1578976;74;704;-72
2021/05/08 06:38:21;;;;;;;;;;;22.40;34.40;;;;;;1575570;74;1934;-73
2021/05/08 06:40:23;;;;;;;;;;;22.50;34.60;;;;;;1572258;74;891;-72
2021/05/08 06:42:25;;;;;;;;;;;22.50;34.50;;;;;;1567822;74;724;-66
2021/05/08 06:44:27;;;;;;;;;;;22.50;34.20;;;;;;1577169;74;779;-73
2021/05/08 06:46:29;;;;;;;;;;;22.50;34.30;;;;;;1574281;74;700;-72
2021/05/08 06:48:31;;;;;;;;;;;22.50;34.30;;;;;;1578599;74;1157;-73
2021/05/08 06:50:33;;;;;;;;;;;22.50;34.40;;;;;;1576211;74;790;-73
2021/05/08 06:52:34;;;;;;;;;;;22.50;34.40;;;;;;1576182;74;799;-70
2021/05/08 06:54:36;;;;;;;;;;;22.60;34.40;;;;;;1572081;74;922;-73
2021/05/08 06:56:38;;;;;;;;;;;22.60;34.30;;;;;;1578309;74;799;-72
2021/05/08 06:58:41;;;;;;;;;;;22.60;34.20;;;;;;1572592;74;1938;-73
2021/05/08 07:00:42;;;;;;;;;;;22.60;34.00;;;;;;1574594;74;717;-73
2021/05/08 07:02:44;;;;;;;;;;;22.70;33.90;;;;;;1577584;74;788;-73
2021/05/08 07:04:47;;;;;;;;;;;22.70;33.70;;;;;;1576126;74;730;-73
2021/05/08 07:06:49;;;;;;;;;;;22.70;33.60;;;;;;1579965;74;760;-73
2021/05/08 07:08:51;;;;;;;;;;;22.70;33.40;;;;;;1575078;74;1144;-71
2021/05/08 07:10:53;;;;;;;;;;;22.70;33.30;;;;;;1574694;74;784;-72
2021/05/08 07:12:55;;;;;;;;;;;22.70;33.10;;;;;;1575550;74;764;-71
2021/05/08 07:14:57;;;;;;;;;;;22.80;32.80;;;;;;1573786;74;713;-71
2021/05/08 07:16:59;;;;;;;;;;;22.80;32.90;;;;;;1577772;74;739;-71
2021/05/08 07:19:00;;;;;;;;;;;22.70;32.90;;;;;;1575481;74;1931;-72
2021/05/08 07:21:02;;;;;;;;;;;22.70;33.00;;;;;;1579912;74;759;-71
2021/05/08 07:23:04;;;;;;;;;;;22.60;32.80;;;;;;1576471;74;925;-70
2021/05/08 07:25:07;;;;;;;;;;;22.60;32.90;;;;;;1580097;74;811;-71
2021/05/08 07:27:09;;;;;;;;;;;22.70;32.60;;;;;;1579247;74;733;-71
2021/05/08 07:29:10;;;;;;;;;;;22.80;32.30;;;;;;1573303;74;1140;-71
2021/05/08 07:31:12;;;;;;;;;;;22.90;32.30;;;;;;1578018;74;745;-72
2021/05/08 07:33:14;;;;;;;;;;;22.90;32.10;;;;;;1576527;74;790;-71
2021/05/08 07:35:16;;;;;;;;;;;22.90;32.10;;;;;;1580390;74;707;-71
2021/05/08 07:37:19;;;;;;;;;;;22.90;32.00;;;;;;1580255;74;723;-71
2021/05/08 07:39:21;;;;;;;;;;;22.90;31.90;;;;;;1573308;74;1894;-71
2021/05/08 07:41:23;;;;;;;;;;;22.90;31.90;;;;;;1576371;74;727;-71
2021/05/08 07:43:25;;;;;;;;;;;22.90;31.90;;;;;;1573088;74;737;-71
2021/05/08 07:45:27;;;;;;;;;;;22.80;31.60;;;;;;1576865;74;675;-67
2021/05/08 07:47:29;;;;;;;;;;;22.70;31.90;;;;;;1572040;74;735;-75
2021/05/08 07:49:31;;;;;;;;;;;22.80;31.90;;;;;;1577994;74;1149;-69
2021/05/08 07:51:33;;;;;;;;;;;22.80;30.60;;;;;;1580228;74;828;-69
2021/05/08 07:53:35;;;;;;;;;;;22.80;31.40;;;;;;1580949;74;834;-70
2021/05/08 07:55:37;;;;;;;;;;;22.80;31.50;;;;;;1574583;74;792;-70
2021/05/08 07:57:39;;;;;;;;;;;22.80;31.50;;;;;;1575747;74;1945;-69
2021/05/08 07:59:41;;;;;;;;;;;22.80;31.50;;;;;;1542090;73;216384;-67
2021/05/08 08:01:42;;;;;;;;;;;22.70;31.50;;;;;;1525966;76;791;-66
2021/05/08 08:03:45;;;;;;;;;;;22.80;31.50;;;;;;1530971;76;763;-68
2021/05/08 08:05:47;;;;;;;;;;;22.70;31.50;;;;;;1524395;76;819;-67
2021/05/08 08:07:49;;;;;;;;;;;22.60;31.60;;;;;;1511420;77;707;-67
2021/05/08 08:09:51;;;;;;;;;;;22.70;31.70;;;;;;1483151;77;1207;-69
2021/05/08 08:11:52;;;;;;;;;;;22.70;31.70;;;;;;1476159;79;820;-67
2021/05/08 08:13:54;;;;;;;;;;;22.70;31.70;;;;;;1480765;78;771;-68
2021/05/08 08:15:56;;;;;;;;;;;22.60;31.70;;;;;;1479567;78;681;-68
2021/05/08 08:17:58;;;;;;;;;;;22.60;31.80;;;;;;1477736;78;1985;-67
2021/05/08 08:20:00;;;;;;;;;;;22.60;31.70;;;;;;1468403;78;1139;-70
2021/05/08 08:22:02;;;;;;;;;;;22.60;31.80;;;;;;1468478;78;732;-66
2021/05/08 08:24:04;;;;;;;;;;;22.70;31.70;;;;;;1478500;78;792;-68
2021/05/08 08:26:06;;;;;;;;;;;22.70;31.70;;;;;;1478831;78;803;-67
2021/05/08 08:28:08;;;;;;;;;;;22.70;31.70;;;;;;1475277;78;733;-67
2021/05/08 08:30:11;;;;;;;;;;;22.60;31.70;;;;;;1470888;79;1104;-69
2021/05/08 08:32:12;;;;;;;;;;;22.60;31.60;;;;;;1474489;78;735;-68
2021/05/08 08:34:14;;;;;;;;;;;22.70;31.70;;;;;;1481552;78;722;-68
2021/05/08 08:36:16;;;;;;;;;;;22.70;31.70;;;;;;1482321;78;767;-68
2021/05/08 08:38:18;;;;;;;;;;;22.60;31.70;;;;;;1481910;78;1942;-67
2021/05/08 08:40:20;;;;;;;;;;;22.60;31.80;;;;;;1491967;78;1288;-68
2021/05/08 08:42:22;;;;;;;;;;;22.60;32.00;;;;;;1477432;78;807;-68
2021/05/08 08:44:24;;;;;;;;;;;22.50;32.10;;;;;;1482902;78;700;-68
2021/05/08 08:46:26;;;;;;;;;;;22.60;32.10;;;;;;1481991;78;811;-68
2021/05/08 08:48:28;;;;;;;;;;;22.50;32.10;;;;;;1486728;78;1182;-67
2021/05/08 08:50:31;;;;;;;;;;;22.50;32.10;;;;;;1478301;78;738;-68
2021/05/08 08:52:33;;;;;;;;;;;22.60;32.10;;;;;;1471071;78;861;-68
2021/05/08 08:54:35;;;;;;;;;;;22.50;32.10;;;;;;1475407;78;738;-68
2021/05/08 08:56:39;;;;;;;;;;;22.60;32.10;;;;;;1470353;78;635;-68
2021/05/08 08:58:43;;;;;;;;;;;22.50;32.10;;;;;;1477806;78;1956;-69
2021/05/08 09:00:44;;;;;;;;;;;22.50;32.10;;;;;;1472160;78;1582;-69
2021/05/08 09:02:47;;;;;;;;;;;22.50;32.20;;;;;;1467103;78;749;-69
2021/05/08 09:04:49;;;;;;;;;;;22.50;32.30;;;;;;1477034;79;683;-70
2021/05/08 09:06:51;;;;;;;;;;;22.50;32.20;;;;;;1475521;78;765;-71
2021/05/08 09:08:53;;;;;;;;;;;22.40;32.20;;;;;;1477506;78;1162;-69
2021/05/08 09:10:56;;;;;;;;;;;22.50;32.30;;;;;;1477152;78;812;-70
2021/05/08 09:12:59;;;;;;;;;;;22.50;32.30;;;;;;1486716;78;1620;-69
2021/05/08 09:15:01;;;;;;;;;;;22.50;32.40;;;;;;1474050;78;735;-69
2021/05/08 09:17:04;;;;;;;;;;;22.50;32.30;;;;;;1487716;78;718;-70
2021/05/08 09:19:18;;;;;;;;;;;22.60;32.20;;;;;;1475263;78;1904;-70
2021/05/08 09:21:28;;;;;;;;;;;22.60;32.10;;;;;;1469471;78;696;-68
2021/05/08 09:23:34;;;;;;;;;;;22.50;32.30;;;;;;1469818;78;721;-69
2021/05/08 09:25:36;;;;;;;;;;;22.50;32.30;;;;;;1481336;78;714;-71
2021/05/08 09:27:39;;;;;;;;;;;22.50;32.40;;;;;;1458442;79;757;-70
2021/05/08 09:29:40;;;;;;;;;;;22.40;32.30;;;;;;1485903;77;1084;-75
2021/05/08 09:31:53;;;;;;;;;;;22.40;30.30;;;;;;1479238;78;748;-74
2021/05/08 09:33:59;;;;;;;;;;;22.40;29.30;;;;;;1477839;78;1215;-70
2021/05/08 09:36:02;;;;;;;;;;;22.50;30.40;;;;;;1475432;77;974;-71
2021/05/08 09:38:10;;;;;;;;;;;22.60;30.70;;;;;;1495583;79;597;-71
2021/05/08 09:40:14;;;;;;;;;;;22.70;30.50;;;;;;1477227;78;1132;-71
2021/05/08 09:42:16;;;;;;;;;;;22.70;28.10;;;;;;1473918;78;1042;-68
2021/05/08 09:44:17;;;;;;;;;;;22.30;27.10;;;;;;1481267;78;726;-73
2021/05/08 09:46:25;;;;;;;;;;;22.10;27.60;;;;;;1482521;78;661;-72
2021/05/08 09:48:31;;;;;;;;;;;22.10;26.10;;;;;;1485882;78;1167;-70
2021/05/08 09:50:33;;;;;;;;;;;21.90;26.30;;;;;;1492282;78;658;-71
2021/05/08 09:52:42;;;;;;;;;;;21.90;26.70;;;;;;1468622;79;730;-70
2021/05/08 09:54:44;;;;;;;;;;;22.00;26.50;;;;;;1470658;78;733;-73
2021/05/08 09:56:46;;;;;;;;;;;21.70;25.90;;;;;;1458487;79;736;-72
2021/05/08 09:58:48;;;;;;;;;;;21.70;27.00;;;;;;1479630;78;1929;-72
2021/05/08 10:00:50;;;;;;;;;;;21.80;27.60;;;;;;1483105;78;846;-72
2021/05/08 10:03:06;;;;;;;;;;;21.90;27.60;;;;;;1490078;78;708;-73
2021/05/08 10:05:10;;;;;;;;;;;21.80;26.90;;;;;;1485080;79;609;-72
2021/05/08 10:07:15;;;;;;;;;;;21.70;27.20;;;;;;1489222;79;953;-73
2021/05/08 10:09:17;;;;;;;;;;;21.70;27.40;;;;;;1481155;78;1148;-72
2021/05/08 10:11:19;;;;;;;;;;;22.00;28.00;;;;;;1479845;78;721;-73
2021/05/08 10:13:21;;;;;;;;;;;22.10;28.00;;;;;;1473797;78;728;-73
2021/05/08 10:15:23;;;;;;;;;;;22.20;27.90;;;;;;1484872;79;744;-73
2021/05/08 10:17:25;;;;;;;;;;;22.00;27.30;;;;;;1476093;78;663;-74
2021/05/08 10:19:28;;;;;;;;;;;22.00;27.10;;;;;;1477780;79;1939;-73
2021/05/08 10:21:30;;;;;;;;;;;22.00;26.80;;;;;;1476786;78;720;-73
2021/05/08 10:23:33;;;;;;;;;;;22.00;27.30;;;;;;1473405;79;1055;-73
2021/05/08 10:25:37;;;;;;;;;;;22.20;27.50;;;;;;1473762;78;741;-73
2021/05/08 10:27:39;;;;;;;;;;;22.30;27.60;;;;;;1484267;79;1010;-73
2021/05/08 10:29:42;;;;;;;;;;;22.30;27.30;;;;;;1470042;78;1150;-73
2021/05/08 10:31:44;;;;;;;;;;;22.50;27.30;;;;;;1476290;78;717;-73
2021/05/08 10:33:46;;;;;;;;;;;22.30;26.80;;;;;;1482733;78;729;-73
2021/05/08 10:35:52;;;;;;;;;;;22.20;25.80;;;;;;1484499;78;760;-72
2021/05/08 10:38:12;;;;;;;;;;;22.00;26.80;;;;;;1486851;79;892;-72
2021/05/08 10:40:14;;;;;;;;;;;21.70;26.40;;;;;;1472530;79;1951;-72
2021/05/08 10:42:34;;;;;;;;;;;21.60;26.10;;;;;;1472883;78;712;-71
2021/05/08 10:44:43;;;;;;;;;;;21.50;26.70;;;;;;1478965;78;736;-73
2021/05/08 10:46:46;;;;;;;;;;;21.40;26.30;;;;;;1479963;78;732;-71
2021/05/08 10:49:13;;;;;;;;;;;21.60;27.20;;;;;;1482790;78;1191;-72
2021/05/08 10:51:14;;;;;;;;;;;21.80;27.00;;;;;;1494537;78;698;-72
2021/05/08 10:53:17;;;;;;;;;;;21.50;25.50;;;;;;1474339;79;665;-69
2021/05/08 10:55:22;;;;;;;;;;;21.50;26.90;;;;;;1477083;78;730;-71
2021/05/08 10:57:24;;;;;;;;;;;21.40;26.40;;;;;;1478690;78;667;-72
2021/05/08 10:59:26;;;;;;;;;;;21.30;27.30;;;;;;1468849;78;1939;-72
2021/05/08 11:01:41;;;;;;;;;;;21.30;27.00;;;;;;1471984;78;814;-72
2021/05/08 11:03:50;;;;;;;;;;;21.40;27.60;;;;;;1486354;78;702;-72
2021/05/08 11:05:56;;;;;;;;;;;21.50;27.60;;;;;;1487008;78;688;-72
2021/05/08 11:07:58;;;;;;;;;;;21.70;27.00;;;;;;1469274;78;738;-72
2021/05/08 11:10:02;;;;;;;;;;;21.80;27.10;;;;;;1486821;78;1157;-74
2021/05/08 11:12:04;;;;;;;;;;;21.70;26.30;;;;;;1487317;78;975;-73
2021/05/08 11:14:05;;;;;;;;;;;21.70;26.80;;;;;;1477559;78;934;-72
2021/05/08 11:16:18;;;;;;;;;;;21.90;26.60;;;;;;1492746;79;725;-74
2021/05/08 11:18:44;;;;;;;;;;;21.80;26.00;;;;;;1475845;78;729;-73
2021/05/08 11:20:46;;;;;;;;;;;21.80;25.50;;;;;;1485594;78;751;-70
2021/05/08 11:22:48;;;;;;;;;;;21.60;25.50;;;;;;1489545;78;714;-71
2021/05/08 11:24:51;;;;;;;;;;;21.50;25.70;;;;;;1464137;80;1175;-72
2021/05/08 11:26:53;;;;;;;;;;;21.40;26.20;;;;;;1483627;78;768;-72
2021/05/08 11:29:06;;;;;;;;;;;21.40;27.10;;;;;;1468537;78;1149;-71
2021/05/08 11:31:08;;;;;;;;;;;21.40;27.60;;;;;;1486917;78;705;-72
2021/05/08 11:33:22;;;;;;;;;;;21.30;26.80;;;;;;1475998;79;737;-72
2021/05/08 11:35:27;;;;;;;;;;;21.30;28.10;;;;;;1473204;78;705;-73
2021/05/08 11:37:29;;;;;;;;;;;21.30;29.00;;;;;;1472845;78;769;-72
2021/05/08 11:39:32;;;;;;;;;;;21.40;28.40;;;;;;1477555;78;1953;-72
2021/05/08 11:41:34;;;;;;;;;;;21.30;27.70;;;;;;1480258;78;1191;-72
2021/05/08 11:43:36;;;;;;;;;;;21.20;27.20;;;;;;1485118;78;737;-73
2021/05/08 11:45:41;;;;;;;;;;;21.10;28.00;;;;;;1479578;78;741;-72
2021/05/08 11:47:43;;;;;;;;;;;21.20;28.40;;;;;;1481530;78;763;-70
2021/05/08 11:49:45;;;;;;;;;;;21.30;28.40;;;;;;1485492;78;1176;-72
2021/05/08 11:51:46;;;;;;;;;;;21.20;27.70;;;;;;1466486;79;952;-73
2021/05/08 11:54:07;;;;;;;;;;;21.10;28.00;;;;;;1490112;79;709;-72
2021/05/08 11:56:09;;;;;;;;;;;21.10;28.10;;;;;;1474857;78;722;-72
2021/05/08 11:58:11;;;;;;;;;;;21.00;28.00;;;;;;1472913;78;737;-73
2021/05/08 12:00:13;;;;;;;;;;;20.90;28.40;;;;;;1490721;78;1939;-71
2021/05/08 12:02:16;;;;;;;;;;;20.90;26.60;;;;;;1480807;78;793;-73
2021/05/08 12:04:18;;;;;;;;;;;20.80;27.50;;;;;;1475909;79;759;-73
2021/05/08 12:06:20;;;;;;;;;;;20.80;28.00;;;;;;1480100;78;695;-73
2021/05/08 12:08:23;;;;;;;;;;;20.90;28.00;;;;;;1470677;78;1168;-73
2021/05/08 12:10:25;;;;;;;;;;;20.90;28.10;;;;;;1479732;78;742;-73
2021/05/08 12:12:26;;;;;;;;;;;21.00;28.00;;;;;;1478770;78;723;-71